createdAt,value
2022-11-21T00:01:49.974Z,63.15
2022-11-21T00:04:55.348Z,44.50
2022-11-21T00:08:01.375Z,46.75
2022-11-21T00:11:06.961Z,63.17
2022-11-21T00:14:13.199Z,33.83
2022-11-21T00:17:19.404Z,43.45
2022-11-21T00:20:25.947Z,76.07
2022-11-21T00:23:33.737Z,58.00
2022-11-21T00:26:39.391Z,57.10
2022-11-21T00:29:45.762Z,60.23
2022-11-21T00:32:50.725Z,62.83
2022-11-21T00:35:56.470Z,68.15
2022-11-21T00:39:02.028Z,84.77
2022-11-21T00:42:07.573Z,57.85
2022-11-21T00:45:13.779Z,63.28
2022-11-21T00:48:18.743Z,66.22
2022-11-21T00:51:25.073Z,65.70
2022-11-21T00:54:30.418Z,69.20
2022-11-21T00:57:36.454Z,65.78
2022-11-21T01:00:42.509Z,61.88
2022-11-21T01:03:49.446Z,48.23
2022-11-21T01:06:56.206Z,59.18
2022-11-21T01:10:02.401Z,54.20
2022-11-21T01:13:08.560Z,55.20
2022-11-21T01:16:27.322Z,51.45
2022-11-21T01:19:32.867Z,67.87
2022-11-21T01:22:38.747Z,58.25
2022-11-21T01:25:44.627Z,45.78
2022-11-21T01:28:50.775Z,78.62
2022-11-21T01:31:57.393Z,55.05
2022-11-21T01:35:02.595Z,56.68
2022-11-21T01:38:08.466Z,55.00
2022-11-21T01:41:15.017Z,63.42
2022-11-21T01:44:35.540Z,60.48
2022-11-21T01:47:29.319Z,59.60
2022-11-21T01:50:35.743Z,61.28
2022-11-21T01:53:41.584Z,45.90
2022-11-21T01:56:54.535Z,52.98
2022-11-21T02:00:16.330Z,59.60
2022-11-21T02:03:26.644Z,63.95
2022-11-21T02:06:33.486Z,68.70
2022-11-21T02:09:39.807Z,71.30
2022-11-21T02:13:05.110Z,64.90
2022-11-21T02:16:11.154Z,82.53
2022-11-21T02:19:17.397Z,87.85
2022-11-21T02:22:28.687Z,99.72
2022-11-21T02:25:44.144Z,69.40
2022-11-21T02:28:50.203Z,112.88
2022-11-21T02:31:55.571Z,89.85
2022-11-21T02:35:02.711Z,100.67
2022-11-21T02:38:20.219Z,83.50
2022-11-21T02:41:36.820Z,58.68
2022-11-21T02:44:49.832Z,86.08
2022-11-21T02:48:03.456Z,84.62
2022-11-21T02:51:05.625Z,121.13
2022-11-21T02:54:05.088Z,99.37
2022-11-21T02:56:51.488Z,105.00
2022-11-21T02:59:44.722Z,97.12
2022-11-21T03:02:31.382Z,96.72
2022-11-21T03:05:26.556Z,59.73
2022-11-21T03:08:19.232Z,135.52
2022-11-21T03:11:17.896Z,102.43
2022-11-21T03:14:24.458Z,65.67
2022-11-21T03:17:30.603Z,111.28
2022-11-21T03:20:35.983Z,102.92
2022-11-21T03:23:42.153Z,127.78
2022-11-21T03:26:47.759Z,64.72
2022-11-21T03:29:53.890Z,67.78
2022-11-21T03:33:00.221Z,97.88
2022-11-21T03:36:06.379Z,103.05
2022-11-21T03:39:11.743Z,76.92
2022-11-21T03:42:11.947Z,75.08
2022-11-21T03:48:24.234Z,80.75
2022-11-21T03:51:29.959Z,64.77
2022-11-21T03:54:35.662Z,85.15
2022-11-21T03:57:42.154Z,69.30
2022-11-21T04:00:48.750Z,69.12
2022-11-21T04:03:56.416Z,50.63
2022-11-21T04:07:04.004Z,59.08
2022-11-21T04:10:09.657Z,82.55
2022-11-21T04:13:16.830Z,72.32
2022-11-21T04:16:22.349Z,62.45
2022-11-21T04:19:28.563Z,35.95
2022-11-21T04:22:35.657Z,86.70
2022-11-21T04:25:34.953Z,67.75
2022-11-21T04:28:40.067Z,68.07
2022-11-21T04:31:46.903Z,67.82
2022-11-21T04:34:54.400Z,79.90
2022-11-21T04:37:55.108Z,95.47
2022-11-21T04:40:41.091Z,92.50
2022-11-21T04:43:40.701Z,92.25
2022-11-21T04:46:46.550Z,95.85
2022-11-21T04:49:52.272Z,107.90
2022-11-21T04:53:01.690Z,102.97
2022-11-21T04:56:08.157Z,106.20
2022-11-21T04:59:13.584Z,125.55
2022-11-21T05:02:13.019Z,191.05
2022-11-21T05:04:58.771Z,36.40
2022-11-21T05:07:51.862Z,17.57
2022-11-21T05:10:39.538Z,28.47
2022-11-21T05:13:32.885Z,22.25
2022-11-21T05:16:32.332Z,18.02
2022-11-21T05:19:37.935Z,10.32
2022-11-21T05:22:44.977Z,17.17
2022-11-21T05:25:50.659Z,11.85
2022-11-21T05:28:55.682Z,11.50
2022-11-21T05:32:02.243Z,10.00
2022-11-21T05:35:08.629Z,10.08
2022-11-21T05:38:13.884Z,10.98
2022-11-21T05:41:19.820Z,13.10
2022-11-21T05:44:25.597Z,16.32
2022-11-21T05:47:31.814Z,11.03
2022-11-21T05:50:37.616Z,10.93
2022-11-21T05:53:44.240Z,12.63
2022-11-21T05:56:49.602Z,10.60
2022-11-21T05:59:54.698Z,10.68
2022-11-21T06:03:20.937Z,11.88
2022-11-21T06:06:30.129Z,12.23
2022-11-21T06:09:36.820Z,17.50
2022-11-21T06:12:42.575Z,21.87
2022-11-21T06:15:47.881Z,12.00
2022-11-21T06:18:58.547Z,23.60
2022-11-21T06:22:04.412Z,20.52
2022-11-21T06:25:13.007Z,18.30
2022-11-21T06:28:18.745Z,25.75
2022-11-21T06:31:30.741Z,21.12
2022-11-21T06:34:35.983Z,22.77
2022-11-21T06:37:41.019Z,18.52
2022-11-21T06:40:46.178Z,39.73
2022-11-21T06:43:51.480Z,25.70
2022-11-21T06:46:57.405Z,36.48
2022-11-21T06:50:03.416Z,24.43
2022-11-21T06:53:10.794Z,33.73
2022-11-21T06:56:17.281Z,26.48
2022-11-21T06:59:22.267Z,22.67
2022-11-21T07:02:28.690Z,23.62
2022-11-21T07:05:33.601Z,28.55
2022-11-21T07:08:40.632Z,35.28
2022-11-21T07:11:46.452Z,35.03
2022-11-21T07:14:55.138Z,38.25
2022-11-21T07:31:47.753Z,23.20
2022-11-21T07:34:53.479Z,32.35
2022-11-21T07:38:00.293Z,43.48
2022-11-21T07:41:06.409Z,49.25
2022-11-21T07:44:11.880Z,55.52
2022-11-21T07:47:18.061Z,42.85
2022-11-21T07:50:24.771Z,62.38
2022-11-21T07:53:31.549Z,47.80
2022-11-21T07:56:36.670Z,57.27
2022-11-21T07:59:42.904Z,50.08
2022-11-21T08:02:48.327Z,59.33
2022-11-21T08:05:54.991Z,67.92
2022-11-21T08:08:55.534Z,57.83
2022-11-21T08:12:01.248Z,69.87
2022-11-21T08:15:06.777Z,59.15
2022-11-21T08:18:12.317Z,70.80
2022-11-21T08:21:20.321Z,76.77
2022-11-21T08:24:26.051Z,65.92
2022-11-21T08:27:31.120Z,92.65
2022-11-21T08:30:36.613Z,89.35
2022-11-21T08:33:41.819Z,87.65
2022-11-21T08:36:47.206Z,78.83
2022-11-21T08:39:52.799Z,86.32
2022-11-21T08:42:58.405Z,99.75
2022-11-21T08:46:03.277Z,78.95
2022-11-21T08:49:09.799Z,100.87
2022-11-21T08:52:15.130Z,104.80
2022-11-21T08:55:23.692Z,107.85
2022-11-21T08:58:28.576Z,105.85
2022-11-21T09:01:34.474Z,127.10
2022-11-21T09:04:40.184Z,105.70
2022-11-21T09:07:47.716Z,112.40
2022-11-21T09:10:53.683Z,122.95
2022-11-21T09:14:17.554Z,92.40
2022-11-21T09:17:44.890Z,110.78
2022-11-21T09:20:56.224Z,94.45
2022-11-21T09:24:01.070Z,80.75
2022-11-21T09:27:07.383Z,118.02
2022-11-21T09:30:13.926Z,87.65
2022-11-21T09:33:23.256Z,118.08
2022-11-21T09:36:29.185Z,127.27
2022-11-21T09:39:35.457Z,87.37
2022-11-21T09:42:54.972Z,73.47
2022-11-21T09:46:02.556Z,104.55
2022-11-21T09:49:15.912Z,98.80
2022-11-21T09:52:23.667Z,92.00
2022-11-21T09:55:54.034Z,83.92
2022-11-21T09:59:15.423Z,111.60
2022-11-21T13:26:48.960Z,105.27
2022-11-21T13:29:54.782Z,94.03
2022-11-21T13:33:06.219Z,134.27
2022-11-21T13:36:11.847Z,108.65
2022-11-21T13:39:22.353Z,102.20
2022-11-21T13:42:58.364Z,106.45
2022-11-21T13:46:06.852Z,78.83
2022-11-21T13:49:19.573Z,76.15
2022-11-21T13:52:38.782Z,45.40
2022-11-21T13:56:06.192Z,44.43
2022-11-21T13:59:52.382Z,39.35
2022-11-21T14:03:30.137Z,55.30
2022-11-21T14:06:53.338Z,53.17
2022-11-21T14:10:03.429Z,38.20
2022-11-21T14:13:08.736Z,45.67
2022-11-21T14:16:40.237Z,43.35
2022-11-21T14:19:46.057Z,50.90
2022-11-21T14:23:15.754Z,62.98
2022-11-21T14:26:28.498Z,52.33
2022-11-21T14:29:43.352Z,48.90
2022-11-21T14:32:53.910Z,43.92
2022-11-21T14:35:55.253Z,47.95
2022-11-21T14:39:35.821Z,49.80
2022-11-21T14:42:22.364Z,60.13
2022-11-21T14:45:33.823Z,70.60
2022-11-21T14:48:47.147Z,62.15
2022-11-21T14:51:52.925Z,75.87
2022-11-21T14:55:29.294Z,50.90
2022-11-21T14:58:17.339Z,50.33
2022-11-21T15:01:34.433Z,53.02
2022-11-21T15:04:49.473Z,76.33
2022-11-21T15:08:17.164Z,56.50
2022-11-21T15:11:05.814Z,58.60
2022-11-21T15:14:16.766Z,50.52
2022-11-21T15:17:28.018Z,51.35
2022-11-21T15:20:34.852Z,54.67
2022-11-21T15:23:51.714Z,40.00
2022-11-21T15:26:58.315Z,49.85
2022-11-21T15:30:28.365Z,53.75
2022-11-21T15:33:34.351Z,39.50
2022-11-21T15:36:40.165Z,54.05
2022-11-21T15:39:46.504Z,51.02
2022-11-21T15:42:51.375Z,51.15
2022-11-21T15:45:57.072Z,34.30
2022-11-21T15:52:15.226Z,63.55
2022-11-21T15:55:25.420Z,31.62
2022-11-21T15:57:13.948Z,43.08
2022-11-21T15:58:33.161Z,43.10
2022-11-21T16:01:41.779Z,39.38
2022-11-21T16:04:47.327Z,50.10
2022-11-21T16:07:54.188Z,36.48
2022-11-21T16:11:00.468Z,41.65
2022-11-21T16:14:10.683Z,37.60
2022-11-21T16:17:16.314Z,48.98
2022-11-21T16:20:23.266Z,35.15
2022-11-21T16:23:29.524Z,31.95
2022-11-21T16:26:37.993Z,44.77
2022-11-21T16:29:43.244Z,43.60
2022-11-21T16:32:49.148Z,30.97
2022-11-21T16:35:55.593Z,34.73
2022-11-21T16:39:06.865Z,37.95
2022-11-21T16:42:07.662Z,29.30
2022-11-21T16:45:12.868Z,32.20
2022-11-21T16:48:19.008Z,32.80
2022-11-21T16:51:35.072Z,34.90
2022-11-21T16:54:40.362Z,34.15
2022-11-21T16:57:49.538Z,34.15
2022-11-21T17:00:55.321Z,37.23
2022-11-21T17:04:01.453Z,42.17
2022-11-21T17:07:06.369Z,45.20
2022-11-21T17:10:12.290Z,28.55
2022-11-21T17:13:17.411Z,32.28
2022-11-21T17:16:22.853Z,34.43
2022-11-21T17:19:29.928Z,32.35
2022-11-21T17:22:35.242Z,26.52
2022-11-21T17:25:40.505Z,25.70
2022-11-21T17:28:46.338Z,28.92
2022-11-21T17:31:52.909Z,37.60
2022-11-21T17:34:58.853Z,25.97
2022-11-21T17:38:04.687Z,24.12
2022-11-21T17:41:20.751Z,26.57
2022-11-21T17:44:29.341Z,25.85
2022-11-21T17:47:35.798Z,31.52
2022-11-21T17:50:40.613Z,25.77
2022-11-21T17:53:50.561Z,31.62
2022-11-21T17:56:57.139Z,36.15
2022-11-21T18:00:03.383Z,30.45
2022-11-21T18:03:10.673Z,24.65
2022-11-21T18:06:23.451Z,36.83
2022-11-21T18:09:29.429Z,28.02
2022-11-21T18:12:34.764Z,32.95
2022-11-21T18:15:40.399Z,36.35
2022-11-21T18:18:46.532Z,28.12
2022-11-21T18:21:52.588Z,38.30
2022-11-21T18:24:57.706Z,41.37
2022-11-21T18:28:03.257Z,47.85
2022-11-21T18:31:07.845Z,35.40
2022-11-21T18:34:15.100Z,21.42
2022-11-21T18:37:20.116Z,27.75
2022-11-21T18:40:27.701Z,25.37
2022-11-21T18:43:32.651Z,27.48
2022-11-21T18:46:37.743Z,24.37
2022-11-21T18:49:42.879Z,23.18
2022-11-21T18:52:48.392Z,31.20
2022-11-21T18:55:54.803Z,28.83
2022-11-21T18:59:00.379Z,24.02
2022-11-21T19:02:05.648Z,28.70
2022-11-21T19:05:13.960Z,32.15
2022-11-21T19:08:18.532Z,33.63
2022-11-21T19:11:26.598Z,30.92
2022-11-21T19:14:31.870Z,40.58
2022-11-21T19:17:36.515Z,37.42
2022-11-21T22:23:56.410Z,25.12
2022-11-21T22:27:37.659Z,21.33
2022-11-21T22:30:55.782Z,33.98
2022-11-21T22:38:17.493Z,42.08
2022-11-21T22:41:59.680Z,34.03
2022-11-21T22:45:37.203Z,33.85
2022-11-21T22:49:00.912Z,25.43
2022-11-21T22:52:05.867Z,36.87
2022-11-21T22:55:11.161Z,25.65
2022-11-21T22:58:16.058Z,25.57
2022-11-21T23:01:27.161Z,21.65
2022-11-21T23:04:33.365Z,32.78
2022-11-21T23:07:39.292Z,21.17
2022-11-21T23:10:44.368Z,27.62
2022-11-21T23:13:49.822Z,32.17
2022-11-21T23:16:55.270Z,19.17
2022-11-21T23:20:00.832Z,31.50
2022-11-21T23:23:06.244Z,23.92
2022-11-21T23:26:11.537Z,32.15
2022-11-21T23:29:17.226Z,32.30
2022-11-21T23:32:22.152Z,28.80
2022-11-21T23:35:27.423Z,28.38
2022-11-21T23:38:32.874Z,23.70
2022-11-21T23:41:38.409Z,24.80
2022-11-21T23:44:44.617Z,29.05
2022-11-21T23:47:50.842Z,28.12
2022-11-21T23:50:59.248Z,23.70
2022-11-21T23:54:04.484Z,30.00
2022-11-21T23:57:09.920Z,25.05
